Time;durP1;ratioP1;P1;durP2;ratioP2;P2;SDS_P1;SDS_P2;PMS_P1;PMS_P2;Temp;Humidity;BMP_temperature;BMP_pressure;BME280_temperature;BME280_humidity;BME280_pressure;Samples;Min_cycle;Max_cycle;Signal;HPM_P1;HPM_P2
2023/02/25 00:00:21;;;;;;;3.30;1.93;;;6.80;99.90;;;;;;5052572;28;20716;-49
2023/02/25 00:02:49;;;;;;;2.23;2.03;;;6.40;99.90;;;;;;5052818;28;20318;-49
2023/02/25 00:05:17;;;;;;;3.03;1.80;;;6.00;99.90;;;;;;5049628;28;20280;-48
2023/02/25 00:07:44;;;;;;;4.17;2.83;;;5.80;99.90;;;;;;5040547;28;20204;-50
2023/02/25 00:10:13;;;;;;;4.33;2.87;;;5.70;99.90;;;;;;5046190;28;20221;-48
2023/02/25 00:12:43;;;;;;;9.83;3.90;;;5.60;99.90;;;;;;5052312;28;20230;-49
2023/02/25 00:15:12;;;;;;;8.97;3.57;;;5.40;99.90;;;;;;5035099;28;20208;-49
2023/02/25 00:17:43;;;;;;;7.50;3.40;;;5.30;99.90;;;;;;5029033;28;20728;-49
2023/02/25 00:20:12;;;;;;;8.63;5.03;;;5.30;99.90;;;;;;5035345;28;20211;-49
2023/02/25 00:22:40;;;;;;;8.27;4.10;;;5.30;99.90;;;;;;5038384;28;20721;-48
2023/02/25 00:25:09;;;;;;;6.13;3.43;;;5.30;99.90;;;;;;5043746;28;20211;-48
2023/02/25 00:27:36;;;;;;;5.63;3.50;;;5.30;99.90;;;;;;5052173;28;20255;-47
2023/02/25 00:30:04;;;;;;;5.37;3.43;;;5.30;99.90;;;;;;5040722;28;20195;-50
2023/02/25 00:32:32;;;;;;;9.53;3.53;;;5.30;99.90;;;;;;5039752;28;20728;-48
2023/02/25 00:35:00;;;;;;;4.50;3.37;;;5.20;99.90;;;;;;5032284;28;20211;-50
2023/02/25 00:37:27;;;;;;;3.17;2.27;;;5.30;99.90;;;;;;5032439;28;20203;-49
2023/02/25 00:39:54;;;;;;;8.20;3.60;;;5.30;99.90;;;;;;5033991;28;20272;-48
2023/02/25 00:42:21;;;;;;;6.13;3.40;;;5.30;99.90;;;;;;5043503;28;20264;-50
2023/02/25 00:44:50;;;;;;;11.83;5.80;;;5.30;99.90;;;;;;5051844;28;20559;-49
2023/02/25 00:47:19;;;;;;;5.97;3.20;;;5.30;99.90;;;;;;5049805;28;20199;-49
2023/02/25 00:49:48;;;;;;;5.33;3.10;;;5.40;99.90;;;;;;5031697;28;20253;-49
2023/02/25 00:52:15;;;;;;;4.20;3.13;;;5.50;99.90;;;;;;5036721;28;20224;-49
2023/02/25 00:54:43;;;;;;;6.33;3.87;;;5.40;99.90;;;;;;5043629;28;20362;-47
2023/02/25 00:57:10;;;;;;;7.20;4.10;;;5.40;99.90;;;;;;5051950;28;20659;-49
2023/02/25 00:59:37;;;;;;;5.53;3.90;;;5.40;99.90;;;;;;5051456;28;20231;-48
2023/02/25 01:02:04;;;;;;;6.17;3.57;;;5.50;99.90;;;;;;5051507;28;20219;-49
2023/02/25 01:04:31;;;;;;;7.80;3.60;;;5.50;99.90;;;;;;5041885;28;20605;-50
2023/02/25 01:07:00;;;;;;;6.30;3.57;;;5.50;99.90;;;;;;5035271;28;20565;-48
2023/02/25 01:09:27;;;;;;;5.80;3.60;;;5.50;99.90;;;;;;5051524;28;20290;-51
2023/02/25 01:11:54;;;;;;;3.23;2.63;;;5.40;99.90;;;;;;5051538;28;20220;-50
2023/02/25 01:14:23;;;;;;;4.03;2.63;;;5.30;99.90;;;;;;5051573;28;20210;-49
2023/02/25 01:16:52;;;;;;;3.77;2.07;;;5.20;99.90;;;;;;5041511;28;20210;-49
2023/02/25 01:19:21;;;;;;;3.00;2.20;;;5.10;99.90;;;;;;5042663;28;20215;-50
2023/02/25 01:21:51;;;;;;;3.47;1.90;;;5.20;99.90;;;;;;5043449;28;20226;-48
2023/02/25 01:24:21;;;;;;;3.07;1.83;;;5.30;99.90;;;;;;5038346;28;20265;-49
2023/02/25 01:26:50;;;;;;;2.67;2.17;;;5.20;99.90;;;;;;5037186;28;20841;-49
2023/02/25 01:29:20;;;;;;;4.07;1.73;;;5.30;99.90;;;;;;5032306;28;20215;-47
2023/02/25 01:31:47;;;;;;;3.13;1.77;;;5.20;99.90;;;;;;5032325;28;20705;-46
2023/02/25 01:34:16;;;;;;;3.73;3.37;;;5.10;99.90;;;;;;5036042;28;20199;-48
2023/02/25 01:36:44;;;;;;;4.17;2.70;;;5.00;99.90;;;;;;5043093;28;20205;-47
2023/02/25 01:39:12;;;;;;;3.27;2.83;;;5.10;99.90;;;;;;5041295;28;20206;-47
2023/02/25 01:41:41;;;;;;;2.23;1.80;;;5.20;99.90;;;;;;5030281;28;20215;-46
2023/02/25 01:44:11;;;;;;;3.47;2.47;;;5.20;99.90;;;;;;5042670;28;20254;-47
2023/02/25 01:46:40;;;;;;;3.77;2.40;;;5.20;99.90;;;;;;5051023;28;20213;-47
2023/02/25 01:49:11;;;;;;;3.97;2.03;;;5.10;99.90;;;;;;5050802;28;20737;-47
2023/02/25 01:51:38;;;;;;;4.27;2.40;;;5.10;99.90;;;;;;5042526;28;20224;-48
2023/02/25 01:54:09;;;;;;;3.20;2.13;;;5.00;99.90;;;;;;5029268;28;20666;-47
2023/02/25 01:56:39;;;;;;;2.43;2.20;;;5.00;99.90;;;;;;5039829;28;20199;-48
2023/02/25 01:59:08;;;;;;;4.27;2.53;;;5.10;99.90;;;;;;5032450;28;20213;-47
2023/02/25 02:01:39;;;;;;;6.17;2.20;;;5.10;99.90;;;;;;5031161;28;20636;-46
2023/02/25 02:04:09;;;;;;;8.20;2.77;;;5.10;99.90;;;;;;5031823;28;20701;-47
2023/02/25 02:06:39;;;;;;;3.13;2.10;;;5.00;99.90;;;;;;5030936;28;20211;-46
2023/02/25 02:09:09;;;;;;;2.93;1.73;;;4.90;99.90;;;;;;5041803;28;20544;-47
2023/02/25 02:11:36;;;;;;;3.30;1.90;;;4.90;99.90;;;;;;5037453;28;20232;-46
2023/02/25 02:14:06;;;;;;;5.70;2.30;;;4.80;99.90;;;;;;5045523;28;20204;-47
2023/02/25 02:16:55;;;;;;;4.27;2.47;;;4.80;99.90;;;;;;5045528;28;20197;-47
2023/02/25 02:19:33;;;;;;;4.63;2.90;;;4.80;99.90;;;;;;5031354;28;20334;-48
2023/02/25 02:22:08;;;;;;;5.23;2.17;;;4.80;99.90;;;;;;5039493;28;20223;-48
2023/02/25 02:25:12;;;;;;;3.37;2.40;;;4.70;99.90;;;;;;5052561;28;20262;-47
2023/02/25 02:28:00;;;;;;;2.83;2.20;;;4.70;99.90;;;;;;5042504;28;20203;-49
2023/02/25 02:30:41;;;;;;;6.10;2.00;;;4.70;99.90;;;;;;5033609;28;20195;-47
2023/02/25 02:33:15;;;;;;;2.23;1.63;;;4.70;99.90;;;;;;5028915;28;20199;-47
2023/02/25 02:35:49;;;;;;;3.60;1.93;;;4.70;99.90;;;;;;5030701;28;20258;-48
2023/02/25 02:38:22;;;;;;;2.27;1.73;;;4.70;99.90;;;;;;5042059;28;20261;-46
2023/02/25 02:40:56;;;;;;;3.83;1.93;;;4.70;99.90;;;;;;5039340;28;20224;-47
2023/02/25 02:43:35;;;;;;;2.23;1.57;;;4.70;99.90;;;;;;5041141;28;20191;-49
2023/02/25 02:46:07;;;;;;;2.70;1.70;;;4.80;99.90;;;;;;5044288;28;20261;-47
2023/02/25 02:48:41;;;;;;;2.60;1.40;;;4.60;99.90;;;;;;5030338;28;20205;-47
2023/02/25 02:51:13;;;;;;;4.10;2.73;;;4.50;99.90;;;;;;5033619;28;20276;-47
2023/02/25 02:53:44;;;;;;;3.80;1.53;;;4.50;99.90;;;;;;5043227;28;20566;-46
2023/02/25 02:56:16;;;;;;;2.67;1.87;;;4.50;99.90;;;;;;5051406;28;20203;-46
2023/02/25 02:58:47;;;;;;;3.93;1.63;;;4.40;99.90;;;;;;5029365;28;20245;-47
2023/02/25 03:01:17;;;;;;;1.90;1.73;;;4.40;99.90;;;;;;5047767;28;20231;-48
2023/02/25 03:03:48;;;;;;;2.37;1.80;;;4.50;99.90;;;;;;5047182;28;20208;-45
2023/02/25 03:06:18;;;;;;;3.03;1.63;;;4.50;99.90;;;;;;5039839;28;20196;-47
2023/02/25 03:08:48;;;;;;;1.33;1.23;;;4.50;99.90;;;;;;5033925;28;20282;-47
2023/02/25 03:11:16;;;;;;;3.10;1.20;;;4.40;99.90;;;;;;5029196;28;20212;-46
2023/02/25 03:13:43;;;;;;;2.00;1.53;;;4.40;99.90;;;;;;5041619;28;20268;-47
2023/02/25 03:16:14;;;;;;;1.47;1.00;;;4.40;99.90;;;;;;5046550;28;20662;-48
2023/02/25 03:18:51;;;;;;;1.40;1.27;;;4.40;99.90;;;;;;5045003;28;20647;-46
2023/02/25 03:21:23;;;;;;;1.97;1.43;;;4.40;99.90;;;;;;5036085;28;20273;-49
2023/02/25 03:23:51;;;;;;;1.90;1.60;;;4.30;99.90;;;;;;5032416;28;20211;-47
2023/02/25 03:26:23;;;;;;;2.27;1.90;;;4.30;99.90;;;;;;5039021;28;20203;-49
2023/02/25 03:28:50;;;;;;;2.03;1.50;;;4.30;99.90;;;;;;5033252;28;20743;-47
2023/02/25 03:31:22;;;;;;;2.60;1.20;;;4.30;99.90;;;;;;5032403;28;20222;-48
2023/02/25 03:33:54;;;;;;;1.20;1.10;;;4.30;99.90;;;;;;5033510;28;20204;-46
2023/02/25 03:36:27;;;;;;;1.50;1.40;;;4.30;99.90;;;;;;5039239;28;20201;-48
2023/02/25 03:38:59;;;;;;;2.67;1.60;;;4.20;99.90;;;;;;5039829;28;20203;-47
2023/02/25 03:41:29;;;;;;;1.87;1.70;;;4.20;99.90;;;;;;5033171;28;20698;-47
2023/02/25 03:43:58;;;;;;;2.47;1.40;;;4.30;99.90;;;;;;5033331;28;20257;-49
2023/02/25 03:46:27;;;;;;;1.33;1.30;;;4.20;99.90;;;;;;5032472;28;20841;-48
2023/02/25 03:48:57;;;;;;;2.50;1.10;;;4.20;99.90;;;;;;5031098;28;20197;-47
2023/02/25 03:51:29;;;;;;;2.00;1.10;;;4.20;99.90;;;;;;5048249;28;20281;-46
2023/02/25 03:53:56;;;;;;;1.67;1.57;;;4.20;99.90;;;;;;5048652;28;20258;-48
2023/02/25 03:56:23;;;;;;;1.63;1.53;;;4.20;99.90;;;;;;5040843;28;20258;-48
2023/02/25 03:58:50;;;;;;;1.60;1.50;;;4.10;99.90;;;;;;5051650;28;20251;-47
2023/02/25 04:01:22;;;;;;;2.87;1.23;;;4.20;99.90;;;;;;5038056;28;20233;-48
2023/02/25 04:03:49;;;;;;;1.73;0.90;;;4.10;99.90;;;;;;5033248;28;20202;-46
2023/02/25 04:06:22;;;;;;;1.77;1.07;;;4.00;99.90;;;;;;5044472;28;20196;-47
2023/02/25 04:08:49;;;;;;;1.30;1.20;;;3.90;99.90;;;;;;5052454;28;20713;-47
2023/02/25 04:11:16;;;;;;;2.10;1.30;;;3.90;99.90;;;;;;5049955;28;20219;-47
2023/02/25 04:13:43;;;;;;;0.80;0.80;;;3.90;99.90;;;;;;5029002;28;20705;-49
2023/02/25 04:16:10;;;;;;;3.43;1.60;;;3.90;99.90;;;;;;5036930;28;20520;-47
2023/02/25 04:18:37;;;;;;;2.03;1.03;;;3.90;99.90;;;;;;5043847;28;20210;-48
2023/02/25 04:21:05;;;;;;;1.27;1.13;;;3.90;99.90;;;;;;5052315;28;20227;-47
2023/02/25 04:23:34;;;;;;;2.50;1.83;;;3.90;99.90;;;;;;5052507;28;20306;-47
2023/02/25 04:26:02;;;;;;;2.30;1.03;;;3.90;99.90;;;;;;5040171;28;20627;-47
2023/02/25 04:28:28;;;;;;;2.10;1.10;;;3.90;99.90;;;;;;5029416;28;20277;-48
2023/02/25 04:30:55;;;;;;;2.10;1.50;;;3.90;99.90;;;;;;5040049;28;20192;-47
2023/02/25 04:33:22;;;;;;;1.63;1.00;;;3.80;99.90;;;;;;5031487;28;20208;-46
2023/02/25 04:35:51;;;;;;;1.20;1.10;;;3.80;99.90;;;;;;5042874;28;20205;-48
2023/02/25 04:38:18;;;;;;;1.13;0.90;;;3.80;99.90;;;;;;5043091;28;20720;-47
2023/02/25 04:40:46;;;;;;;2.63;1.23;;;3.90;99.90;;;;;;5038707;28;20331;-47
2023/02/25 04:43:13;;;;;;;3.17;1.23;;;3.90;99.90;;;;;;5041680;28;20195;-48
2023/02/25 04:45:40;;;;;;;0.97;0.97;;;3.80;99.90;;;;;;5035232;28;20532;-49
2023/02/25 04:48:07;;;;;;;2.60;1.53;;;3.80;99.90;;;;;;5031796;28;20274;-48
2023/02/25 04:50:34;;;;;;;2.77;1.03;;;3.90;99.90;;;;;;5030452;28;20200;-48
2023/02/25 04:53:02;;;;;;;1.20;1.10;;;3.90;99.90;;;;;;5040560;28;20223;-46
2023/02/25 04:55:29;;;;;;;1.20;1.10;;;3.90;99.90;;;;;;5043385;28;20279;-47
2023/02/25 04:57:57;;;;;;;1.43;1.00;;;4.00;99.90;;;;;;5040238;28;20219;-47
2023/02/25 05:00:26;;;;;;;1.23;1.13;;;3.90;99.90;;;;;;5046791;28;20268;-47
2023/02/25 05:02:54;;;;;;;0.80;0.80;;;3.90;99.90;;;;;;5037439;28;20216;-47
2023/02/25 05:05:21;;;;;;;2.53;1.03;;;3.80;99.90;;;;;;5034812;28;20227;-47
2023/02/25 05:07:49;;;;;;;2.03;1.07;;;3.80;99.90;;;;;;5037953;28;20732;-47
2023/02/25 05:10:16;;;;;;;1.23;1.10;;;3.90;99.90;;;;;;5042254;28;20291;-46
2023/02/25 05:12:45;;;;;;;1.20;1.10;;;3.80;99.90;;;;;;5028531;28;20230;-46
2023/02/25 05:15:15;;;;;;;1.60;1.50;;;3.80;99.90;;;;;;5045065;28;20253;-46
2023/02/25 05:17:45;;;;;;;3.30;1.17;;;3.80;99.90;;;;;;5039570;28;20279;-47
2023/02/25 05:20:12;;;;;;;1.53;1.07;;;3.70;99.90;;;;;;5020709;28;20216;-47
2023/02/25 05:22:43;;;;;;;1.47;1.03;;;3.70;99.90;;;;;;5031299;28;20251;-47
2023/02/25 05:25:10;;;;;;;1.00;0.90;;;3.70;99.90;;;;;;5031304;28;20662;-48
2023/02/25 05:27:41;;;;;;;1.90;1.20;;;3.70;99.90;;;;;;5032791;28;20201;-46
2023/02/25 05:30:09;;;;;;;1.73;1.00;;;3.70;99.90;;;;;;5035662;28;20624;-46
2023/02/25 05:32:41;;;;;;;2.93;1.50;;;3.70;99.90;;;;;;5039180;28;20305;-47
2023/02/25 05:35:09;;;;;;;2.17;1.03;;;3.70;99.90;;;;;;5046497;28;20208;-47
2023/02/25 05:37:36;;;;;;;2.47;2.20;;;3.70;99.90;;;;;;5031023;28;20290;-47
2023/02/25 05:40:05;;;;;;;3.43;2.80;;;3.80;99.90;;;;;;5030951;28;20238;-47
2023/02/25 05:42:32;;;;;;;1.33;1.23;;;3.80;99.90;;;;;;5039137;28;20242;-47
2023/02/25 05:44:59;;;;;;;2.23;1.10;;;3.80;99.90;;;;;;5043189;28;20205;-47
2023/02/25 05:47:27;;;;;;;2.20;1.27;;;3.80;99.90;;;;;;5040425;28;20200;-47
2023/02/25 05:49:55;;;;;;;1.83;1.67;;;3.80;99.90;;;;;;5042487;28;20208;-47
2023/02/25 05:52:22;;;;;;;6.53;1.50;;;3.80;99.90;;;;;;5043562;28;20267;-47
2023/02/25 05:54:49;;;;;;;2.07;1.87;;;3.80;99.90;;;;;;5032666;28;20258;-47
2023/02/25 05:57:16;;;;;;;2.60;1.83;;;3.80;99.90;;;;;;5027935;28;20200;-47
2023/02/25 05:59:43;;;;;;;1.40;1.30;;;3.90;99.90;;;;;;5035268;28;20251;-47
2023/02/25 06:02:10;;;;;;;2.63;1.60;;;3.80;99.90;;;;;;5036581;28;20275;-47
2023/02/25 06:04:37;;;;;;;1.53;1.40;;;3.90;99.90;;;;;;5040414;28;20211;-47
2023/02/25 06:07:05;;;;;;;1.33;1.23;;;3.90;99.90;;;;;;5040909;28;20263;-47
2023/02/25 06:09:35;;;;;;;1.40;1.10;;;3.90;99.90;;;;;;5033446;28;20582;-47
2023/02/25 06:12:01;;;;;;;1.23;1.20;;;3.90;99.90;;;;;;5041902;28;20274;-47
2023/02/25 06:14:28;;;;;;;1.53;1.20;;;3.90;99.90;;;;;;5044623;28;20245;-47
2023/02/25 06:16:55;;;;;;;1.90;1.67;;;3.90;99.90;;;;;;5042080;28;20282;-48
2023/02/25 06:19:25;;;;;;;1.40;1.30;;;3.90;99.90;;;;;;5029610;28;20285;-47
2023/02/25 06:21:53;;;;;;;1.33;1.23;;;3.90;99.90;;;;;;5049020;28;20331;-46
2023/02/25 06:24:22;;;;;;;1.40;1.30;;;3.90;99.90;;;;;;5041584;28;20737;-48
2023/02/25 06:26:49;;;;;;;1.30;1.20;;;3.90;99.90;;;;;;5033483;28;20648;-47
2023/02/25 06:29:16;;;;;;;2.27;1.90;;;4.00;99.90;;;;;;5037439;28;20204;-47
2023/02/25 06:31:43;;;;;;;2.30;1.53;;;4.00;99.90;;;;;;5035023;28;20280;-48
2023/02/25 06:34:10;;;;;;;1.47;1.37;;;4.00;99.90;;;;;;5035205;28;20645;-47
2023/02/25 06:36:37;;;;;;;3.53;3.30;;;4.00;99.90;;;;;;5043168;28;20678;-47
2023/02/25 06:39:04;;;;;;;2.37;2.27;;;4.10;99.90;;;;;;5054183;28;20208;-47
2023/02/25 06:41:32;;;;;;;1.80;1.70;;;4.10;99.90;;;;;;5051279;28;20223;-47
2023/02/25 06:43:59;;;;;;;1.33;1.20;;;4.10;99.90;;;;;;5025424;28;20203;-47
2023/02/25 06:46:27;;;;;;;3.00;1.43;;;4.10;99.90;;;;;;5036012;28;20200;-47
2023/02/25 06:48:54;;;;;;;3.17;2.27;;;4.10;99.90;;;;;;5045170;28;20262;-47
2023/02/25 06:51:21;;;;;;;3.00;2.80;;;4.10;99.90;;;;;;5035312;28;20217;-46
2023/02/25 06:53:49;;;;;;;5.13;3.00;;;4.10;99.90;;;;;;5037234;28;20200;-48
2023/02/25 06:56:18;;;;;;;6.53;3.20;;;4.10;99.90;;;;;;5032271;28;22077;-49
2023/02/25 06:58:47;;;;;;;4.13;2.03;;;4.10;99.90;;;;;;5039307;28;20201;-47
2023/02/25 07:01:16;;;;;;;3.30;1.67;;;4.20;99.90;;;;;;5036219;28;20236;-47
2023/02/25 07:03:43;;;;;;;2.57;2.37;;;4.20;99.90;;;;;;5025521;28;20213;-46
2023/02/25 07:06:12;;;;;;;2.97;2.23;;;4.20;99.90;;;;;;5032134;28;20267;-47
2023/02/25 07:08:40;;;;;;;3.67;2.00;;;4.20;99.90;;;;;;5033442;28;20300;-47
2023/02/25 07:11:11;;;;;;;2.40;2.20;;;4.20;99.90;;;;;;5031888;28;20352;-48
2023/02/25 07:13:39;;;;;;;2.27;2.03;;;4.20;99.90;;;;;;5042741;28;20258;-47
2023/02/25 07:16:08;;;;;;;3.43;1.60;;;4.20;99.90;;;;;;5043333;28;20258;-48
2023/02/25 07:18:34;;;;;;;3.03;1.70;;;4.20;99.90;;;;;;5035143;28;20200;-48
2023/02/25 07:21:01;;;;;;;2.30;1.63;;;4.20;99.90;;;;;;5032428;28;20234;-46
2023/02/25 07:23:28;;;;;;;2.80;2.20;;;4.20;99.90;;;;;;5039631;28;20275;-47
2023/02/25 07:25:55;;;;;;;2.17;1.30;;;4.30;99.90;;;;;;5032523;28;20197;-48
2023/02/25 07:28:22;;;;;;;3.93;2.47;;;4.30;99.90;;;;;;5029430;28;20537;-48
2023/02/25 07:30:49;;;;;;;5.77;2.40;;;4.30;99.90;;;;;;5032265;28;20566;-47
2023/02/25 07:33:17;;;;;;;4.30;2.07;;;4.40;99.90;;;;;;5039387;28;20199;-47
2023/02/25 07:35:44;;;;;;;5.90;2.80;;;4.50;99.90;;;;;;5037015;28;20207;-48
2023/02/25 07:38:11;;;;;;;4.00;3.03;;;4.60;99.90;;;;;;5037983;28;20452;-46
2023/02/25 07:40:41;;;;;;;3.27;2.60;;;4.70;99.90;;;;;;5029468;28;20241;-48
2023/02/25 07:43:08;;;;;;;3.60;2.53;;;4.80;99.90;;;;;;5040509;28;20224;-47
2023/02/25 07:45:35;;;;;;;2.33;2.13;;;4.80;99.90;;;;;;5034223;28;20205;-48
2023/02/25 07:48:02;;;;;;;2.07;1.93;;;4.90;99.90;;;;;;5036840;28;20196;-47
2023/02/25 07:50:31;;;;;;;2.37;2.17;;;5.00;99.90;;;;;;5030105;28;20258;-48
2023/02/25 07:52:58;;;;;;;2.57;2.37;;;5.00;99.90;;;;;;5027723;28;20224;-48
2023/02/25 07:55:25;;;;;;;1.67;1.57;;;4.90;99.90;;;;;;5040740;28;20574;-46
2023/02/25 07:57:52;;;;;;;2.60;2.40;;;4.90;99.90;;;;;;5052201;28;20201;-46
2023/02/25 08:00:20;;;;;;;8.90;5.17;;;4.90;99.90;;;;;;5052347;28;20240;-48
2023/02/25 08:02:47;;;;;;;5.47;3.37;;;4.90;99.90;;;;;;5048538;28;20223;-47
2023/02/25 08:05:14;;;;;;;2.43;2.23;;;4.90;99.90;;;;;;5033633;28;20202;-48
2023/02/25 08:07:42;;;;;;;2.40;2.20;;;4.90;99.90;;;;;;5034400;28;20236;-47
2023/02/25 08:10:10;;;;;;;2.07;1.60;;;4.90;99.90;;;;;;5034534;28;20265;-47
2023/02/25 08:12:38;;;;;;;2.90;2.60;;;4.80;99.90;;;;;;5038398;28;20220;-46
2023/02/25 08:15:06;;;;;;;4.53;2.77;;;4.80;99.90;;;;;;5032738;28;20244;-47
2023/02/25 08:17:34;;;;;;;3.47;3.17;;;4.80;99.90;;;;;;5044749;28;20194;-46
2023/02/25 08:20:03;;;;;;;2.23;2.13;;;4.90;99.90;;;;;;5048777;28;20260;-48
2023/02/25 08:22:33;;;;;;;2.77;2.57;;;4.90;99.90;;;;;;5027042;28;20326;-48
2023/02/25 08:25:02;;;;;;;2.33;2.17;;;5.00;99.90;;;;;;5029189;28;20207;-47
2023/02/25 08:27:31;;;;;;;2.10;1.87;;;5.20;99.90;;;;;;5038528;28;20208;-46
2023/02/25 08:29:58;;;;;;;2.90;2.20;;;5.20;99.90;;;;;;5040420;28;20302;-50
2023/02/25 08:32:26;;;;;;;3.13;2.63;;;5.20;99.90;;;;;;5052176;28;20257;-47
2023/02/25 08:34:53;;;;;;;5.37;2.73;;;5.20;99.90;;;;;;5040463;28;20296;-47
2023/02/25 08:37:21;;;;;;;2.97;2.67;;;5.20;99.90;;;;;;5030544;28;20200;-48
2023/02/25 08:39:48;;;;;;;3.33;3.03;;;5.20;99.90;;;;;;5040845;28;20254;-48
2023/02/25 08:42:17;;;;;;;2.67;2.47;;;5.30;99.90;;;;;;5041922;28;20240;-49
2023/02/25 08:44:45;;;;;;;3.10;2.63;;;5.10;99.90;;;;;;5032074;28;20204;-48
2023/02/25 08:47:12;;;;;;;2.80;1.93;;;5.10;99.90;;;;;;5034128;28;20205;-49
2023/02/25 08:49:39;;;;;;;2.47;2.27;;;5.10;99.90;;;;;;5031791;28;20207;-48
2023/02/25 08:52:08;;;;;;;2.63;2.30;;;5.20;99.90;;;;;;5038665;28;20275;-47
2023/02/25 08:54:36;;;;;;;2.37;2.17;;;5.30;99.90;;;;;;5038406;28;20204;-48
2023/02/25 08:57:03;;;;;;;3.23;1.90;;;5.30;99.90;;;;;;5031771;28;20203;-47
2023/02/25 08:59:34;;;;;;;3.33;2.40;;;5.30;99.90;;;;;;5030789;28;20211;-46
2023/02/25 09:02:02;;;;;;;4.33;2.27;;;5.30;99.90;;;;;;5029074;28;20317;-49
2023/02/25 09:04:28;;;;;;;4.87;4.33;;;5.20;99.90;;;;;;5042002;28;20207;-47
2023/02/25 09:06:57;;;;;;;3.30;3.00;;;5.20;99.90;;;;;;5030740;28;20200;-47
2023/02/25 09:09:24;;;;;;;5.37;2.97;;;5.20;99.90;;;;;;5031740;28;20257;-47
2023/02/25 09:11:52;;;;;;;4.27;3.13;;;5.20;99.90;;;;;;5032276;28;20282;-47
2023/02/25 09:14:19;;;;;;;4.30;3.67;;;5.30;99.90;;;;;;5031895;28;20213;-47
2023/02/25 09:16:48;;;;;;;6.67;3.63;;;5.30;99.90;;;;;;5039700;28;20205;-48
2023/02/25 09:19:17;;;;;;;6.07;3.93;;;5.30;99.90;;;;;;5048776;28;20642;-48
2023/02/25 09:21:46;;;;;;;7.60;3.47;;;5.30;99.90;;;;;;5037493;28;20233;-47
2023/02/25 09:24:14;;;;;;;4.90;3.70;;;5.30;99.90;;;;;;5034050;28;20195;-48
2023/02/25 09:26:41;;;;;;;3.80;3.47;;;5.40;99.90;;;;;;5030504;28;20205;-48
2023/02/25 09:29:09;;;;;;;4.00;3.70;;;5.50;99.90;;;;;;5037771;28;20202;-47
2023/02/25 09:31:38;;;;;;;3.97;3.57;;;5.50;99.90;;;;;;5046323;28;20892;-47
2023/02/25 09:34:09;;;;;;;3.47;3.17;;;5.50;99.90;;;;;;5036740;28;20212;-47
2023/02/25 09:36:36;;;;;;;3.47;3.03;;;5.50;99.90;;;;;;5031321;28;20269;-49
2023/02/25 09:39:08;;;;;;;51.40;40.60;;;5.50;99.90;;;;;;5042747;28;20198;-47
2023/02/25 09:41:41;;;;;;;25.73;19.63;;;5.50;99.90;;;;;;5039759;28;20635;-48
2023/02/25 09:44:13;;;;;;;37.60;28.13;;;5.50;99.90;;;;;;5041079;28;20246;-46
2023/02/25 09:46:49;;;;;;;12.90;8.97;;;5.60;99.90;;;;;;5038924;28;20301;-48
2023/02/25 09:49:24;;;;;;;4.90;4.57;;;5.70;99.90;;;;;;5051051;28;20233;-48
2023/02/25 09:51:57;;;;;;;4.97;3.70;;;5.70;99.90;;;;;;5027614;28;20712;-46
2023/02/25 09:54:30;;;;;;;6.43;5.80;;;5.70;99.90;;;;;;5031050;28;20497;-47
2023/02/25 09:57:00;;;;;;;6.73;5.00;;;5.70;99.90;;;;;;5030160;28;20202;-46
2023/02/25 09:59:29;;;;;;;7.07;5.43;;;5.90;99.90;;;;;;5038771;28;20200;-48
2023/02/25 10:01:59;;;;;;;5.70;4.93;;;5.90;99.90;;;;;;5038023;28;20588;-47
2023/02/25 10:04:36;;;;;;;5.13;4.63;;;5.80;99.90;;;;;;5040981;28;20193;-47
2023/02/25 10:07:13;;;;;;;5.40;4.33;;;5.80;99.90;;;;;;5026895;28;20211;-46
2023/02/25 10:09:48;;;;;;;4.87;4.47;;;5.70;99.90;;;;;;5047120;28;20209;-46
2023/02/25 10:12:27;;;;;;;6.20;5.47;;;5.80;99.90;;;;;;5038751;28;20227;-47
2023/02/25 10:15:19;;;;;;;5.50;5.07;;;5.80;99.90;;;;;;5048510;28;20201;-49
2023/02/25 10:18:04;;;;;;;5.97;4.50;;;5.90;99.90;;;;;;5037113;28;20205;-47
2023/02/25 10:21:06;;;;;;;4.57;4.17;;;5.90;99.90;;;;;;5043451;28;20257;-47
2023/02/25 10:23:48;;;;;;;6.53;5.47;;;5.90;99.90;;;;;;5039766;28;20249;-46
2023/02/25 10:26:19;;;;;;;6.53;4.30;;;5.90;99.90;;;;;;5029978;28;20200;-47
2023/02/25 10:28:50;;;;;;;7.17;4.70;;;6.00;99.90;;;;;;5040831;28;20733;-48
2023/02/25 10:31:20;;;;;;;6.07;4.03;;;6.10;99.90;;;;;;5050689;28;20289;-48
2023/02/25 10:33:50;;;;;;;8.87;5.83;;;6.10;99.90;;;;;;5042755;28;20205;-48
2023/02/25 10:36:22;;;;;;;5.80;5.20;;;6.20;99.90;;;;;;5034765;28;20261;-47
2023/02/25 10:38:51;;;;;;;5.50;5.00;;;6.20;99.90;;;;;;5041610;28;20360;-47
2023/02/25 10:41:21;;;;;;;5.27;4.53;;;6.30;99.90;;;;;;5034561;28;20227;-48
2023/02/25 10:43:50;;;;;;;5.87;4.57;;;6.30;99.90;;;;;;5034832;28;20229;-46
2023/02/25 10:46:23;;;;;;;6.53;5.70;;;6.30;99.90;;;;;;5035208;28;20231;-46
2023/02/25 10:48:56;;;;;;;6.33;4.97;;;6.40;99.90;;;;;;5037184;28;20210;-47
2023/02/25 10:51:27;;;;;;;12.40;6.03;;;6.30;99.90;;;;;;5043070;28;20249;-54
2023/02/25 10:54:04;;;;;;;10.23;6.17;;;6.30;99.90;;;;;;5045638;28;20223;-47
2023/02/25 10:56:38;;;;;;;5.37;4.87;;;6.30;99.90;;;;;;5058079;28;20204;-47
2023/02/25 10:59:08;;;;;;;6.60;5.57;;;6.30;99.90;;;;;;5041208;28;20211;-47
2023/02/25 11:01:39;;;;;;;7.50;6.03;;;6.30;99.90;;;;;;5032454;28;20259;-47
2023/02/25 11:04:14;;;;;;;6.43;5.93;;;6.30;99.90;;;;;;5036504;28;20221;-47
2023/02/25 11:06:43;;;;;;;10.93;6.13;;;6.30;99.90;;;;;;5050418;28;20253;-48
2023/02/25 11:09:31;;;;;;;11.10;6.87;;;6.30;99.90;;;;;;5038861;28;20203;-47
2023/02/25 11:12:00;;;;;;;8.30;5.57;;;6.30;99.90;;;;;;5033340;28;20743;-49
2023/02/25 11:14:29;;;;;;;13.83;7.30;;;6.20;99.90;;;;;;5032422;28;20281;-48
2023/02/25 11:17:12;;;;;;;10.13;8.20;;;6.20;99.90;;;;;;5044676;28;20233;-48
2023/02/25 11:19:41;;;;;;;11.63;8.07;;;6.20;99.90;;;;;;5013655;28;20212;-47
2023/02/25 11:22:17;;;;;;;13.73;8.63;;;6.10;99.90;;;;;;5027107;28;20231;-47
2023/02/25 11:24:54;;;;;;;14.70;7.67;;;5.80;99.90;;;;;;5043811;28;20229;-48
2023/02/25 11:27:32;;;;;;;13.70;8.03;;;5.70;99.90;;;;;;5037437;28;20552;-47
2023/02/25 11:30:05;;;;;;;12.20;8.43;;;5.70;99.90;;;;;;5031874;28;20221;-48
2023/02/25 11:32:33;;;;;;;10.70;7.10;;;5.70;99.90;;;;;;5024739;28;20273;-47
2023/02/25 11:35:07;;;;;;;7.77;5.80;;;5.60;99.90;;;;;;5030016;28;20295;-47
2023/02/25 11:37:42;;;;;;;9.50;6.20;;;5.60;99.90;;;;;;5028299;28;20204;-47
2023/02/25 11:40:26;;;;;;;7.07;6.17;;;5.50;99.90;;;;;;5030730;28;20199;-47
2023/02/25 11:43:15;;;;;;;11.53;5.30;;;5.60;99.90;;;;;;5029510;28;20306;-47
2023/02/25 11:45:51;;;;;;;7.87;5.00;;;5.50;99.90;;;;;;5031906;28;20633;-48
2023/02/25 11:48:21;;;;;;;6.33;5.17;;;5.60;99.90;;;;;;5035140;28;20203;-48
2023/02/25 11:50:55;;;;;;;6.57;4.63;;;5.50;99.90;;;;;;5043890;28;20688;-48
2023/02/25 11:53:36;;;;;;;7.60;4.83;;;5.50;99.90;;;;;;5028260;28;20208;-48
2023/02/25 11:56:10;;;;;;;6.77;4.20;;;5.50;99.90;;;;;;5037821;28;20203;-47
2023/02/25 11:58:50;;;;;;;6.23;3.97;;;5.40;99.90;;;;;;5045514;28;20204;-47
2023/02/25 12:01:25;;;;;;;4.03;3.43;;;5.40;99.90;;;;;;5037705;28;20228;-48
2023/02/25 12:04:28;;;;;;;5.60;3.87;;;5.40;99.90;;;;;;5031417;28;20942;-47
2023/02/25 12:07:25;;;;;;;8.43;4.30;;;5.30;99.90;;;;;;4976502;28;20196;-48
2023/02/25 12:10:20;;;;;;;4.80;3.33;;;5.10;99.90;;;;;;5025506;28;20204;-47
2023/02/25 12:13:25;;;;;;;7.57;4.37;;;5.10;99.90;;;;;;5032246;28;20619;-47
2023/02/25 12:16:26;;;;;;;7.67;4.90;;;5.10;99.90;;;;;;5028030;28;20211;-48
2023/02/25 12:19:16;;;;;;;10.47;6.53;;;5.20;99.90;;;;;;5043768;28;20712;-47
2023/02/25 12:22:15;;;;;;;6.83;5.63;;;5.20;99.90;;;;;;5048034;28;20289;-48
2023/02/25 12:24:59;;;;;;;6.40;4.83;;;5.20;99.90;;;;;;5047974;28;20239;-47
2023/02/25 12:27:55;;;;;;;11.87;7.40;;;5.20;99.90;;;;;;5037317;28;20439;-48
2023/02/25 12:31:08;;;;;;;10.80;6.23;;;5.20;99.90;;;;;;5036062;28;20203;-47
2023/02/25 12:34:15;;;;;;;9.03;4.53;;;5.20;99.90;;;;;;5026159;28;20196;-47
2023/02/25 12:37:00;;;;;;;6.87;4.37;;;5.20;99.90;;;;;;5038593;28;20295;-47
2023/02/25 12:39:53;;;;;;;7.33;5.17;;;5.10;99.90;;;;;;5030968;28;20215;-46
2023/02/25 12:42:37;;;;;;;5.87;5.23;;;5.10;99.90;;;;;;5012171;28;20228;-46
2023/02/25 12:45:35;;;;;;;11.57;5.00;;;5.00;99.90;;;;;;5031738;28;20648;-46
2023/02/25 12:48:26;;;;;;;8.17;5.50;;;5.00;99.90;;;;;;5006915;28;20202;-48
2023/02/25 12:51:10;;;;;;;7.27;5.40;;;5.00;99.90;;;;;;5036891;28;20200;-46
2023/02/25 12:53:46;;;;;;;5.83;4.87;;;5.10;99.90;;;;;;5030645;28;20206;-46
2023/02/25 12:56:46;;;;;;;7.60;5.53;;;5.00;99.90;;;;;;5043677;28;20214;-46
2023/02/25 12:59:50;;;;;;;11.17;5.23;;;5.00;99.90;;;;;;4992021;28;20208;-46
2023/02/25 13:02:37;;;;;;;6.87;5.57;;;5.00;99.90;;;;;;5031581;28;20573;-46
2023/02/25 13:05:37;;;;;;;5.73;4.53;;;4.90;99.90;;;;;;5037426;28;20200;-47
2023/02/25 13:08:25;;;;;;;6.87;5.70;;;4.90;99.90;;;;;;5025081;28;20204;-46
2023/02/25 13:11:02;;;;;;;10.10;5.00;;;4.80;99.90;;;;;;5028373;28;20206;-47
2023/02/25 13:13:55;;;;;;;10.90;6.23;;;4.70;99.90;;;;;;5026285;28;20609;-48
2023/02/25 13:16:33;;;;;;;9.90;6.30;;;4.60;99.90;;;;;;5035349;28;20286;-47
2023/02/25 13:19:29;;;;;;;12.57;5.87;;;4.60;99.90;;;;;;5022675;28;20204;-47